PHP Weather

Conditions Météo Internationales

Rapport météo courant pour Montreal / Dorval International, Que, Canada:

Voici le bulletin pour Montreal / Dorval International, Que, Canada. Le bulletin a été fait il y a 6 heures et 20 minutes , à 15:00 UTC. Le vent soufflait à la vitesse de 5.7 mètres par seconde (12.7 miles par heure) de Nord/Nord-est (030°). La température était de 2 °C (36 °F), avec un point de rosée à 1 °C (34 °F). La température ressentie était de -3 °C (28 °F). La pression atmosphérique était de 1021 hPa (30.15 inHg). L'humidité relative était de 93.1%. Il y avait 5 à 7/8è de nébulosité à une hauteur de 122 mètres (400 pieds). Le ciel était nuageux à partir d'une hauteur de 366 mètres (1200 pieds) La visibilité globale était de 6.4 kilomètres (4.0 miles). Actuellement léger/legère pluie plus brume.

Code METAR : CYUL 201500Z 03011KT 4SM -RA BR BKN004 OVC012 02/01 A3015 RMK SF6SF2 SLP213